createdAt,value
2019-05-05T00:01:09.358Z,4.87
2019-05-05T00:03:34.182Z,4.63
2019-05-05T00:05:38.813Z,5.63
2019-05-05T00:07:42.470Z,4.70
2019-05-05T00:09:46.044Z,3.83
2019-05-05T00:12:11.837Z,3.93
2019-05-05T00:14:29.211Z,6.70
2019-05-05T00:16:55.519Z,4.03
2019-05-05T00:18:59.161Z,6.23
2019-05-05T00:21:04.622Z,3.93
2019-05-05T00:23:08.238Z,5.87
2019-05-05T00:25:11.882Z,4.83
2019-05-05T00:27:15.544Z,4.73
2019-05-05T00:29:19.399Z,5.90
2019-05-05T00:31:24.247Z,4.33
2019-05-05T00:33:28.188Z,3.67
2019-05-05T00:35:31.745Z,5.80
2019-05-05T00:37:35.396Z,4.10
2019-05-05T00:39:39.046Z,3.50
2019-05-05T00:41:44.766Z,3.97
2019-05-05T00:43:48.086Z,3.63
2019-05-05T00:45:55.545Z,5.10
2019-05-05T00:48:08.266Z,4.43
2019-05-05T00:50:14.582Z,5.40
2019-05-05T00:52:18.304Z,4.60
2019-05-05T00:54:21.898Z,5.23
2019-05-05T00:56:25.516Z,4.53
2019-05-05T00:58:30.670Z,3.17
2019-05-05T01:00:47.870Z,5.13
2019-05-05T01:02:54.161Z,3.23
2019-05-05T01:05:22.792Z,6.00
2019-05-05T01:07:26.531Z,4.50
2019-05-05T01:09:30.492Z,4.67
2019-05-05T01:11:35.532Z,3.47
2019-05-05T01:13:39.606Z,5.30
2019-05-05T01:15:44.837Z,3.27
2019-05-05T01:17:48.598Z,4.67
2019-05-05T01:20:01.179Z,4.63
2019-05-05T01:21:57.964Z,7.50
2019-05-05T01:24:01.524Z,3.30
2019-05-05T01:26:05.515Z,4.33
2019-05-05T01:28:09.459Z,5.23
2019-05-05T01:30:15.696Z,8.10
2019-05-05T01:32:24.704Z,8.43
2019-05-05T01:34:34.941Z,5.50
2019-05-05T01:36:38.638Z,4.33
2019-05-05T01:38:47.758Z,6.53
2019-05-05T01:41:08.547Z,6.13
2019-05-05T01:43:12.165Z,4.10
2019-05-05T01:45:15.803Z,5.27
2019-05-05T01:47:19.444Z,4.70
2019-05-05T01:49:25.107Z,6.40
2019-05-05T01:51:28.848Z,4.40
2019-05-05T01:53:32.386Z,3.87
2019-05-05T01:55:36.228Z,4.70
2019-05-05T01:57:39.866Z,4.17
2019-05-05T01:59:44.788Z,5.47
2019-05-05T02:01:48.674Z,6.47
2019-05-05T02:03:52.230Z,4.43
2019-05-05T02:05:56.104Z,5.50
2019-05-05T02:07:59.814Z,4.00
2019-05-05T02:10:06.013Z,4.80
2019-05-05T02:12:08.784Z,3.13
2019-05-05T02:14:12.346Z,4.77
2019-05-05T02:16:15.900Z,4.27
2019-05-05T02:18:19.552Z,5.53
2019-05-05T02:20:39.391Z,5.53
2019-05-05T02:22:44.581Z,7.33
2019-05-05T02:24:48.385Z,5.20
2019-05-05T02:26:52.146Z,5.47
2019-05-05T02:29:10.958Z,4.70
2019-05-05T02:31:36.210Z,4.67
2019-05-05T02:33:39.886Z,5.80
2019-05-05T02:35:45.946Z,6.13
2019-05-05T02:37:48.891Z,7.00
2019-05-05T02:40:02.079Z,4.77
2019-05-05T02:41:58.013Z,3.43
2019-05-05T02:44:04.854Z,7.70
2019-05-05T02:46:27.305Z,4.80
2019-05-05T02:48:31.185Z,3.47
2019-05-05T02:50:57.521Z,6.10
2019-05-05T02:52:59.459Z,4.37
2019-05-05T02:55:04.162Z,4.87
2019-05-05T02:57:08.192Z,5.23
2019-05-05T02:59:16.143Z,3.60
2019-05-05T03:01:41.423Z,6.70
2019-05-05T03:03:45.325Z,3.73
2019-05-05T03:05:48.953Z,5.47
2019-05-05T03:07:54.447Z,4.13
2019-05-05T03:09:58.845Z,4.13
2019-05-05T03:12:04.754Z,3.43
2019-05-05T03:14:10.368Z,5.20
2019-05-05T03:16:16.141Z,6.60
2019-05-05T03:18:20.107Z,5.40
2019-05-05T03:20:23.860Z,3.80
2019-05-05T03:22:27.820Z,3.43
2019-05-05T03:24:33.982Z,3.70
2019-05-05T03:26:37.684Z,4.33
2019-05-05T03:28:44.746Z,3.23
2019-05-05T03:30:48.367Z,4.37
2019-05-05T03:32:55.685Z,5.23
2019-05-05T03:34:57.804Z,3.67
2019-05-05T03:37:01.681Z,4.90
2019-05-05T03:39:06.432Z,3.97
2019-05-05T03:41:14.601Z,5.10
2019-05-05T03:43:25.637Z,4.80
2019-05-05T03:45:44.376Z,5.57
2019-05-05T03:47:48.032Z,5.27
2019-05-05T03:49:53.465Z,3.90
2019-05-05T03:51:57.687Z,3.63
2019-05-05T03:54:04.141Z,6.00
2019-05-05T03:56:07.323Z,5.03
2019-05-05T03:58:10.910Z,3.63
2019-05-05T04:00:16.025Z,3.10
2019-05-05T04:02:34.036Z,3.77
2019-05-05T04:04:44.173Z,5.07
2019-05-05T04:06:48.814Z,5.43
2019-05-05T04:08:53.799Z,3.97
2019-05-05T04:10:57.659Z,5.77
2019-05-05T04:13:04.569Z,5.07
2019-05-05T04:15:08.087Z,4.33
2019-05-05T04:17:37.089Z,3.70
2019-05-05T04:19:44.414Z,4.90
2019-05-05T04:21:47.982Z,3.37
2019-05-05T04:23:53.506Z,3.60
2019-05-05T04:25:56.977Z,8.87
2019-05-05T04:28:00.533Z,3.33
2019-05-05T04:30:04.505Z,2.90
2019-05-05T04:32:08.072Z,4.50
2019-05-05T04:34:13.410Z,3.33
2019-05-05T04:36:16.959Z,3.67
2019-05-05T04:38:20.533Z,4.50
2019-05-05T04:40:24.435Z,5.27
2019-05-05T04:42:28.092Z,4.67
2019-05-05T04:44:31.707Z,4.00
2019-05-05T04:46:35.426Z,4.93
2019-05-05T04:48:47.519Z,2.97
2019-05-05T04:50:59.107Z,4.37
2019-05-05T04:53:04.538Z,3.53
2019-05-05T04:55:08.255Z,3.27
2019-05-05T04:57:11.887Z,4.33
2019-05-05T04:59:15.547Z,3.67
2019-05-05T05:01:19.207Z,5.03
2019-05-05T05:03:45.289Z,5.30
2019-05-05T05:06:01.350Z,3.03
2019-05-05T05:08:04.987Z,4.83
2019-05-05T05:10:08.585Z,4.63
2019-05-05T05:12:14.503Z,4.57
2019-05-05T05:14:17.648Z,5.40
2019-05-05T05:16:21.235Z,5.10
2019-05-05T05:18:24.810Z,3.77
2019-05-05T05:20:28.488Z,3.33
2019-05-05T05:22:33.430Z,2.83
2019-05-05T05:24:37.193Z,4.23
2019-05-05T05:26:40.866Z,3.20
2019-05-05T05:28:44.881Z,3.77
2019-05-05T05:30:48.651Z,7.67
2019-05-05T05:32:53.847Z,7.17
2019-05-05T05:34:57.799Z,4.47
2019-05-05T05:37:01.386Z,4.60
2019-05-05T05:39:11.598Z,6.00
2019-05-05T05:41:17.239Z,4.40
2019-05-05T05:43:26.955Z,3.60
2019-05-05T05:45:51.659Z,3.37
2019-05-05T05:48:17.225Z,5.10
2019-05-05T05:50:36.897Z,7.33
2019-05-05T05:52:40.549Z,3.63
2019-05-05T05:54:44.336Z,4.07
2019-05-05T05:56:48.069Z,5.07
2019-05-05T05:58:51.773Z,2.80
2019-05-05T06:00:56.607Z,6.67
2019-05-05T06:03:00.249Z,2.70
2019-05-05T06:05:04.387Z,4.53
2019-05-05T06:07:08.208Z,3.00
2019-05-05T06:09:11.946Z,3.67
2019-05-05T06:11:15.584Z,5.30
2019-05-05T06:13:19.142Z,5.00
2019-05-05T06:15:24.464Z,6.77
2019-05-05T06:17:28.292Z,3.97
2019-05-05T06:19:33.782Z,4.57
2019-05-05T06:21:37.323Z,3.47
2019-05-05T06:23:40.986Z,5.00
2019-05-05T06:25:44.949Z,4.60
2019-05-05T06:27:48.814Z,3.80
2019-05-05T06:29:54.301Z,4.10
2019-05-05T06:31:57.990Z,7.63
2019-05-05T06:34:03.562Z,4.77
2019-05-05T06:36:06.949Z,7.33
2019-05-05T06:38:10.506Z,4.07
2019-05-05T06:40:15.717Z,4.13
2019-05-05T06:42:34.166Z,5.23
2019-05-05T06:44:44.363Z,5.37
2019-05-05T06:47:09.894Z,3.53
2019-05-05T06:49:13.729Z,5.97
2019-05-05T06:51:17.443Z,7.00
2019-05-05T06:53:21.128Z,7.03
2019-05-05T06:55:24.778Z,5.42
2019-05-05T06:57:28.356Z,5.47
2019-05-05T06:59:31.935Z,5.20
2019-05-05T07:01:35.626Z,6.65
2019-05-05T07:03:39.260Z,5.22
2019-05-05T07:05:43.813Z,4.20
2019-05-05T07:07:47.831Z,4.47
2019-05-05T07:09:51.420Z,3.83
2019-05-05T07:11:55.089Z,5.97
2019-05-05T07:13:58.932Z,3.90
2019-05-05T07:16:04.619Z,6.78
2019-05-05T07:18:07.863Z,4.87
2019-05-05T07:20:13.522Z,5.90
2019-05-05T07:22:18.130Z,4.90
2019-05-05T07:24:23.705Z,5.85
2019-05-05T07:26:27.140Z,4.55
2019-05-05T07:28:30.778Z,5.83
2019-05-05T07:30:34.531Z,6.90
2019-05-05T07:32:38.155Z,4.62
2019-05-05T07:35:04.189Z,5.08
2019-05-05T07:37:07.988Z,6.20
2019-05-05T07:39:14.210Z,5.65
2019-05-05T07:41:17.299Z,4.75
2019-05-05T07:43:20.862Z,5.35
2019-05-05T07:45:25.868Z,8.13
2019-05-05T07:47:29.672Z,5.92
2019-05-05T07:49:33.576Z,5.50
2019-05-05T07:51:37.298Z,3.83
2019-05-05T07:53:41.015Z,7.75
2019-05-05T07:55:44.695Z,4.87
2019-05-05T07:57:48.261Z,4.25
2019-05-05T07:59:53.921Z,6.22
2019-05-05T08:01:57.302Z,6.45
2019-05-05T08:04:01.206Z,5.67
2019-05-05T08:06:04.789Z,3.77
2019-05-05T08:08:08.454Z,7.47
2019-05-05T08:10:13.702Z,6.30
2019-05-05T08:12:17.497Z,5.37
2019-05-05T08:14:21.059Z,3.60
2019-05-05T08:16:37.587Z,4.95
2019-05-05T08:19:03.885Z,4.28
2019-05-05T08:21:07.691Z,5.03
2019-05-05T08:23:29.228Z,8.40
2019-05-05T08:26:04.475Z,5.08
2019-05-05T08:28:15.367Z,2.52
2019-05-05T08:30:24.474Z,3.52
2019-05-05T08:32:35.071Z,6.58
2019-05-05T08:34:36.652Z,4.95
2019-05-05T08:36:40.294Z,4.28
2019-05-05T08:38:44.259Z,2.80
2019-05-05T08:40:47.959Z,4.83
2019-05-05T08:42:53.744Z,2.47
2019-05-05T08:44:56.957Z,3.40
2019-05-05T08:47:00.602Z,3.47
2019-05-05T08:49:04.456Z,6.75
2019-05-05T08:51:08.204Z,2.35
2019-05-05T08:53:13.698Z,3.15
2019-05-05T08:55:17.256Z,5.42
2019-05-05T08:57:20.972Z,4.83
2019-05-05T08:59:24.710Z,3.45
2019-05-05T09:01:28.395Z,5.17
2019-05-05T09:03:33.673Z,2.77
2019-05-05T09:05:37.485Z,5.12
2019-05-05T09:07:41.161Z,4.03
2019-05-05T09:09:44.749Z,2.90
2019-05-05T09:11:48.425Z,2.58
2019-05-05T09:13:53.565Z,2.22
2019-05-05T09:15:57.265Z,3.85
2019-05-05T09:18:00.911Z,3.22
2019-05-05T09:20:05.945Z,3.20
2019-05-05T09:22:09.655Z,3.55
2019-05-05T09:24:40.461Z,4.08
2019-05-05T09:26:51.305Z,2.47
2019-05-05T09:29:14.027Z,2.90
2019-05-05T09:31:17.593Z,3.77
2019-05-05T09:33:21.282Z,3.70
2019-05-05T09:35:24.849Z,4.30
2019-05-05T09:37:28.461Z,4.08
2019-05-05T09:39:32.127Z,4.90
2019-05-05T09:41:35.785Z,2.80
2019-05-05T09:43:39.383Z,4.55
2019-05-05T09:45:44.153Z,3.30
2019-05-05T09:47:48.107Z,3.12
2019-05-05T09:49:51.695Z,2.08
2019-05-05T09:51:55.272Z,3.08
2019-05-05T09:54:10.933Z,2.10
2019-05-05T09:56:04.376Z,3.30
2019-05-05T09:58:07.996Z,3.80
2019-05-05T10:00:14.024Z,2.30
2019-05-05T10:02:17.792Z,1.40
2019-05-05T10:04:21.743Z,4.47
2019-05-05T10:06:25.585Z,2.25
2019-05-05T10:08:29.398Z,3.15
2019-05-05T10:10:33.754Z,1.57
2019-05-05T10:12:37.624Z,2.12
2019-05-05T10:14:44.744Z,3.50
2019-05-05T10:16:48.317Z,1.42
2019-05-05T10:18:54.079Z,1.55
2019-05-05T10:20:57.464Z,2.50
2019-05-05T10:23:01.288Z,2.55
2019-05-05T10:25:23.872Z,4.25
2019-05-05T10:27:27.694Z,2.95
2019-05-05T10:29:31.323Z,2.67
2019-05-05T10:31:35.011Z,2.45
2019-05-05T10:33:42.095Z,2.17
2019-05-05T10:35:45.684Z,2.55
2019-05-05T10:37:49.258Z,2.00
2019-05-05T10:39:54.376Z,2.72
2019-05-05T10:41:58.159Z,2.67
2019-05-05T10:44:03.536Z,1.80
2019-05-05T10:46:07.051Z,1.65
2019-05-05T10:48:10.719Z,1.47
2019-05-05T10:50:14.714Z,2.87
2019-05-05T10:52:18.479Z,2.02
2019-05-05T10:54:23.671Z,2.50
2019-05-05T10:56:27.906Z,2.45
2019-05-05T10:58:33.487Z,2.45
2019-05-05T11:00:41.276Z,2.72
2019-05-05T11:02:44.875Z,1.67
2019-05-05T11:04:48.563Z,2.42
2019-05-05T11:06:54.225Z,1.47
2019-05-05T11:08:57.732Z,2.00
2019-05-05T11:11:01.332Z,1.30
2019-05-05T11:13:04.934Z,2.17
2019-05-05T11:15:08.633Z,1.47
2019-05-05T11:17:14.222Z,2.35
2019-05-05T11:19:17.619Z,2.35
2019-05-05T11:21:21.287Z,3.33
2019-05-05T11:23:25.074Z,2.12
2019-05-05T11:25:28.948Z,3.87
2019-05-05T11:27:34.529Z,4.97
2019-05-05T11:29:56.993Z,7.45
2019-05-05T11:32:03.645Z,4.60
2019-05-05T11:34:14.447Z,4.65
2019-05-05T11:36:21.018Z,3.87
2019-05-05T11:38:24.783Z,4.45
2019-05-05T11:40:34.487Z,1.67
2019-05-05T11:42:38.162Z,3.60
2019-05-05T11:44:41.817Z,3.40
2019-05-05T11:46:45.426Z,4.58
2019-05-05T11:48:49.033Z,1.67
2019-05-05T11:50:54.059Z,2.25
2019-05-05T11:52:57.978Z,2.45
2019-05-05T11:55:09.744Z,2.95
2019-05-05T11:57:07.054Z,2.12
2019-05-05T11:59:10.644Z,3.77
2019-05-05T12:01:14.313Z,4.62
2019-05-05T12:03:17.964Z,2.65
2019-05-05T12:05:21.640Z,2.05
2019-05-05T12:07:25.287Z,3.58
2019-05-05T12:09:44.871Z,1.80
2019-05-05T12:11:48.464Z,3.55
2019-05-05T12:13:54.434Z,4.40
2019-05-05T12:24:29.080Z,3.45
2019-05-05T12:26:54.126Z,2.83
2019-05-05T12:28:59.930Z,3.00
2019-05-05T12:31:05.558Z,5.05
2019-05-05T12:33:09.242Z,3.90
2019-05-05T12:35:14.787Z,3.98
2019-05-05T12:37:18.220Z,3.02
2019-05-05T12:39:21.812Z,2.80
2019-05-05T12:41:25.386Z,3.70
2019-05-05T12:43:28.995Z,4.47
2019-05-05T12:45:34.651Z,2.05
2019-05-05T12:47:56.186Z,3.52
2019-05-05T12:49:59.855Z,3.08
2019-05-05T12:52:04.592Z,3.80
2019-05-05T12:54:08.665Z,3.12
2019-05-05T12:56:14.477Z,3.92
2019-05-05T12:58:17.670Z,6.12
2019-05-05T13:00:21.926Z,3.87
2019-05-05T13:02:25.544Z,4.40
2019-05-05T13:04:30.110Z,5.10
2019-05-05T13:06:34.682Z,4.00
2019-05-05T13:08:38.485Z,4.53
2019-05-05T13:10:44.116Z,3.80
2019-05-05T13:12:47.457Z,4.70
2019-05-05T13:14:51.061Z,6.58
2019-05-05T13:16:56.061Z,4.67
2019-05-05T13:19:00.520Z,5.80
2019-05-05T13:21:17.879Z,4.40
2019-05-05T13:23:36.109Z,6.40
2019-05-05T13:25:55.899Z,4.90
2019-05-05T13:27:53.365Z,4.00
2019-05-05T13:29:56.967Z,4.45
2019-05-05T13:32:00.539Z,8.08
2019-05-05T13:34:04.481Z,8.00
2019-05-05T13:36:08.300Z,4.97
2019-05-05T13:38:11.977Z,6.50
2019-05-05T13:40:16.158Z,8.03
2019-05-05T13:42:19.792Z,5.22
2019-05-05T13:44:42.693Z,6.58
2019-05-05T13:46:46.336Z,6.45
2019-05-05T13:48:49.933Z,5.70
2019-05-05T13:50:57.644Z,4.30
2019-05-05T13:53:01.292Z,5.62
2019-05-05T13:55:04.957Z,7.67
2019-05-05T13:57:08.626Z,5.80
2019-05-05T13:59:14.118Z,5.80
2019-05-05T14:01:17.758Z,5.37
2019-05-05T14:03:23.391Z,3.80
2019-05-05T14:05:26.735Z,6.20
2019-05-05T14:07:30.410Z,5.08
2019-05-05T14:09:34.116Z,2.92
2019-05-05T14:11:37.772Z,3.90
2019-05-05T14:13:41.419Z,4.10
2019-05-05T14:15:45.015Z,5.62
2019-05-05T14:17:48.654Z,6.53
2019-05-05T14:20:04.170Z,8.00
2019-05-05T14:21:57.619Z,7.08
2019-05-05T14:24:09.583Z,7.58
2019-05-05T14:26:25.066Z,4.97
2019-05-05T14:28:18.774Z,5.37
2019-05-05T14:30:45.613Z,6.72
2019-05-05T14:32:49.287Z,4.78
2019-05-05T14:34:59.415Z,5.37
2019-05-05T14:37:20.888Z,6.12
2019-05-05T14:39:24.555Z,5.53
2019-05-05T14:41:28.165Z,4.67
2019-05-05T14:43:31.773Z,5.15
2019-05-05T14:45:35.459Z,5.80
2019-05-05T14:47:39.130Z,4.80
2019-05-05T14:49:44.420Z,7.45
2019-05-05T14:51:48.175Z,5.05
2019-05-05T14:53:54.121Z,5.15
2019-05-05T14:55:57.217Z,5.03
2019-05-05T14:58:00.880Z,7.78
2019-05-05T15:00:05.365Z,3.52
2019-05-05T15:02:08.929Z,4.78
2019-05-05T15:04:14.231Z,4.10
2019-05-05T15:06:23.969Z,6.92
2019-05-05T15:08:45.551Z,3.60
2019-05-05T15:11:00.572Z,6.03
2019-05-05T15:13:07.615Z,5.40
2019-05-05T15:15:11.389Z,4.92
2019-05-05T15:17:15.050Z,9.18
2019-05-05T15:19:18.701Z,7.58
2019-05-05T15:21:23.612Z,9.78
2019-05-05T15:23:27.428Z,9.35
2019-05-05T15:25:31.123Z,7.80
2019-05-05T15:27:34.934Z,9.95
2019-05-05T15:29:39.165Z,7.20
2019-05-05T15:31:43.500Z,8.58
2019-05-05T15:33:47.279Z,10.00
2019-05-05T15:35:50.853Z,9.43
2019-05-05T15:37:54.479Z,10.00
2019-05-05T15:39:58.152Z,9.83
2019-05-05T15:42:02.040Z,10.25
2019-05-05T15:44:05.853Z,9.03
2019-05-05T15:46:09.489Z,7.62
2019-05-05T15:48:13.967Z,10.60
2019-05-05T15:50:18.034Z,11.03
2019-05-05T15:52:21.753Z,12.28
2019-05-05T15:54:25.455Z,11.90
2019-05-05T15:56:29.231Z,9.48
2019-05-05T15:58:34.261Z,6.03
2019-05-05T16:00:38.289Z,8.13
2019-05-05T16:02:43.987Z,9.18
2019-05-05T16:04:50.294Z,10.13
2019-05-05T16:06:54.205Z,8.45
2019-05-05T16:08:57.874Z,10.25
2019-05-05T16:11:03.325Z,8.15
2019-05-05T16:13:06.959Z,8.18
2019-05-05T16:15:30.095Z,12.03
2019-05-05T16:17:39.828Z,8.95
2019-05-05T16:20:04.429Z,9.85
2019-05-05T16:22:11.438Z,10.03
2019-05-05T16:24:24.730Z,13.05
2019-05-05T16:26:28.495Z,12.40
2019-05-05T16:28:34.074Z,13.32
2019-05-05T16:30:37.539Z,10.40
2019-05-05T16:32:41.227Z,12.75
2019-05-05T16:34:44.905Z,12.13
2019-05-05T16:36:48.713Z,11.55
2019-05-05T16:38:52.406Z,11.00
2019-05-05T16:40:56.190Z,10.23
2019-05-05T16:43:00.172Z,9.30
2019-05-05T16:45:04.675Z,7.45
2019-05-05T16:47:08.423Z,9.08
2019-05-05T16:49:13.926Z,10.28
2019-05-05T16:51:21.103Z,8.83
2019-05-05T16:53:38.065Z,8.78
2019-05-05T16:55:53.738Z,8.58
2019-05-05T16:57:57.128Z,8.83
2019-05-05T17:00:00.795Z,10.32
2019-05-05T17:02:04.858Z,7.47
2019-05-05T17:04:11.484Z,10.40
2019-05-05T17:06:14.154Z,9.80
2019-05-05T17:08:17.852Z,9.95
2019-05-05T17:10:21.500Z,10.00
2019-05-05T17:12:25.181Z,10.13
2019-05-05T17:14:37.104Z,12.13
2019-05-05T17:16:48.809Z,7.83
2019-05-05T17:19:06.597Z,11.12
2019-05-05T17:21:29.352Z,11.90
2019-05-05T17:23:34.159Z,7.37
2019-05-05T17:25:38.082Z,8.55
2019-05-05T17:27:48.724Z,9.18
2019-05-05T17:29:47.162Z,12.63
2019-05-05T17:31:50.884Z,8.83
2019-05-05T17:33:54.546Z,12.25
2019-05-05T17:35:58.219Z,7.65
2019-05-05T17:38:09.286Z,9.85
2019-05-05T17:40:28.078Z,8.48
2019-05-05T17:42:47.504Z,13.78
2019-05-05T17:45:00.737Z,12.18
2019-05-05T17:47:20.430Z,8.20
2019-05-05T17:49:55.852Z,9.93
2019-05-05T17:52:03.739Z,9.88
2019-05-05T17:54:19.068Z,10.18
2019-05-05T17:56:23.880Z,8.33
2019-05-05T17:58:27.795Z,8.45
2019-05-05T18:00:34.253Z,8.23
2019-05-05T18:02:38.237Z,11.75
2019-05-05T18:04:44.364Z,11.73
2019-05-05T18:06:53.675Z,7.83
2019-05-05T18:09:09.099Z,8.05
2019-05-05T18:11:27.133Z,9.00
2019-05-05T18:13:37.926Z,8.93
2019-05-05T18:15:59.510Z,8.05
2019-05-05T18:18:04.394Z,9.13
2019-05-05T18:20:08.313Z,8.23
2019-05-05T18:22:13.762Z,7.20
2019-05-05T18:24:17.420Z,8.83
2019-05-05T18:26:21.127Z,11.33
2019-05-05T18:28:24.971Z,7.70
2019-05-05T18:30:28.968Z,8.20
2019-05-05T18:32:34.197Z,8.65
2019-05-05T18:34:38.062Z,7.90
2019-05-05T18:36:41.786Z,9.55
2019-05-05T18:38:45.445Z,6.83
2019-05-05T18:40:49.834Z,8.03
2019-05-05T18:42:54.338Z,9.20
2019-05-05T18:45:03.583Z,11.53
2019-05-05T18:47:17.513Z,8.98
2019-05-05T18:49:19.871Z,9.88
2019-05-05T18:51:24.109Z,8.58
2019-05-05T18:53:28.036Z,8.88
2019-05-05T18:55:33.911Z,8.83
2019-05-05T18:57:37.787Z,8.18
2019-05-05T18:59:41.510Z,9.33
2019-05-05T19:01:51.145Z,7.05
2019-05-05T19:04:13.644Z,9.98
2019-05-05T19:06:35.142Z,8.98
2019-05-05T19:08:54.306Z,9.53
2019-05-05T19:10:51.634Z,10.55
2019-05-05T19:12:55.366Z,9.78
2019-05-05T19:14:59.121Z,8.43
2019-05-05T19:17:04.763Z,8.58
2019-05-05T19:19:09.787Z,10.72
2019-05-05T19:21:27.132Z,9.35
2019-05-05T19:23:30.913Z,9.25
2019-05-05T19:25:37.410Z,11.10
2019-05-05T19:27:41.194Z,7.60
2019-05-05T19:29:46.249Z,7.08
2019-05-05T19:31:51.912Z,16.95
2019-05-05T19:33:55.980Z,11.80
2019-05-05T19:35:59.744Z,9.73
2019-05-05T19:38:04.941Z,12.00
2019-05-05T19:40:08.901Z,8.18
2019-05-05T19:42:14.412Z,10.98
2019-05-05T19:44:18.040Z,9.57
2019-05-05T19:46:25.174Z,11.48
2019-05-05T19:48:28.886Z,11.08
2019-05-05T19:50:51.635Z,6.92
2019-05-05T19:52:56.466Z,12.50
2019-05-05T19:55:00.159Z,8.98
2019-05-05T19:57:05.933Z,10.95
2019-05-05T19:59:09.633Z,8.60
2019-05-05T20:01:13.309Z,7.83
2019-05-05T20:03:16.909Z,11.90
2019-05-05T20:05:20.621Z,9.05
2019-05-05T20:07:24.838Z,11.68
2019-05-05T20:09:28.642Z,10.80
2019-05-05T20:11:34.021Z,8.63
2019-05-05T20:13:37.723Z,11.53
2019-05-05T20:15:57.072Z,14.65
2019-05-05T20:18:00.681Z,8.95
2019-05-05T20:20:05.309Z,10.23
2019-05-05T20:22:08.948Z,9.38
2019-05-05T20:24:14.542Z,9.40
2019-05-05T20:26:18.059Z,6.53
2019-05-05T20:28:23.963Z,7.70
2019-05-05T20:30:27.047Z,8.23
2019-05-05T20:32:37.203Z,9.77
2019-05-05T20:34:45.954Z,10.97
2019-05-05T20:37:07.538Z,7.25
2019-05-05T20:39:11.109Z,10.32
2019-05-05T20:41:19.196Z,7.90
2019-05-05T20:43:22.887Z,10.40
2019-05-05T20:45:28.674Z,7.83
2019-05-05T20:47:34.321Z,8.50
2019-05-05T20:49:37.663Z,10.25
2019-05-05T20:51:41.241Z,8.73
2019-05-05T20:53:48.730Z,10.93
2019-05-05T20:55:50.211Z,12.63
2019-05-05T20:57:53.879Z,12.78
2019-05-05T20:59:57.524Z,10.18
2019-05-05T21:02:01.169Z,10.03
2019-05-05T21:04:04.905Z,12.15
2019-05-05T21:06:08.683Z,11.12
2019-05-05T21:08:14.095Z,7.45
2019-05-05T21:10:17.651Z,8.95
2019-05-05T21:12:21.271Z,10.35
2019-05-05T21:14:34.459Z,10.20
2019-05-05T21:16:30.221Z,9.67
2019-05-05T21:18:34.709Z,10.50
2019-05-05T21:20:38.640Z,10.77
2019-05-05T21:22:48.883Z,8.73
2019-05-05T21:24:54.301Z,10.07
2019-05-05T21:27:04.206Z,9.23
2019-05-05T21:29:08.019Z,15.00
2019-05-05T21:31:11.701Z,10.73
2019-05-05T21:33:15.280Z,13.58
2019-05-05T21:35:18.964Z,9.90
2019-05-05T21:37:24.727Z,13.67
2019-05-05T21:39:28.003Z,9.70
2019-05-05T21:41:33.823Z,9.65
2019-05-05T21:43:36.963Z,11.60
2019-05-05T21:45:40.563Z,9.93
2019-05-05T21:47:44.308Z,13.07
2019-05-05T21:49:48.003Z,13.88
2019-05-05T21:52:08.142Z,11.17
2019-05-05T21:54:28.292Z,16.90
2019-05-05T21:57:06.483Z,11.87
2019-05-05T21:59:10.163Z,9.43
2019-05-05T22:01:16.183Z,10.90
2019-05-05T22:03:26.951Z,9.97
2019-05-05T22:05:30.615Z,10.23
2019-05-05T22:07:34.177Z,8.40
2019-05-05T22:09:37.757Z,9.73
2019-05-05T22:11:43.463Z,11.20
2019-05-05T22:13:46.703Z,11.50
2019-05-05T22:15:50.387Z,13.73
2019-05-05T22:17:54.324Z,12.13
2019-05-05T22:20:05.475Z,10.80
2019-05-05T22:22:09.673Z,17.00
2019-05-05T22:24:23.120Z,9.47
2019-05-05T22:26:26.719Z,12.30
2019-05-05T22:28:30.281Z,11.90
2019-05-05T22:30:34.427Z,14.27
2019-05-05T22:32:38.256Z,10.07
2019-05-05T22:34:41.890Z,9.60
2019-05-05T22:36:45.566Z,9.80
2019-05-05T22:38:49.163Z,11.33
2019-05-05T22:40:54.507Z,11.60
2019-05-05T22:42:58.283Z,9.63
2019-05-05T22:45:04.462Z,9.40
2019-05-05T22:47:07.430Z,9.17
2019-05-05T22:49:11.002Z,11.87
2019-05-05T22:51:14.585Z,10.37
2019-05-05T22:53:18.176Z,12.60
2019-05-05T22:55:21.769Z,10.73
2019-05-05T22:57:25.432Z,15.63
2019-05-05T22:59:29.033Z,11.87
2019-05-05T23:01:32.739Z,11.23
2019-05-05T23:03:43.098Z,8.67
2019-05-05T23:05:55.456Z,10.63
2019-05-05T23:07:59.135Z,14.90
2019-05-05T23:10:04.545Z,14.73
2019-05-05T23:12:08.149Z,9.23
2019-05-05T23:14:30.529Z,12.13
2019-05-05T23:16:40.197Z,10.77
2019-05-05T23:18:44.264Z,10.23
2019-05-05T23:21:08.003Z,11.80
2019-05-05T23:23:29.626Z,13.23
2019-05-05T23:25:36.831Z,13.63
2019-05-05T23:27:46.743Z,14.73
2019-05-05T23:29:50.423Z,11.60
2019-05-05T23:31:54.013Z,10.77
2019-05-05T23:33:57.584Z,13.83
2019-05-05T23:36:01.159Z,12.83
2019-05-05T23:38:04.726Z,10.90
2019-05-05T23:40:08.680Z,12.53
2019-05-05T23:42:12.278Z,11.83
2019-05-05T23:44:15.831Z,13.20
2019-05-05T23:46:19.467Z,10.70
2019-05-05T23:48:24.093Z,11.43
2019-05-05T23:50:27.896Z,9.30
2019-05-05T23:52:31.468Z,9.60
2019-05-05T23:54:35.066Z,13.67
2019-05-05T23:56:38.631Z,12.47
2019-05-05T23:58:44.073Z,11.90
